createdAt,value
2018-01-11T00:00:47.282Z,12.52
2018-01-11T00:03:14.891Z,13.50
2018-01-11T00:05:42.470Z,14.55
2018-01-11T00:08:10.042Z,14.45
2018-01-11T00:10:37.710Z,10.95
2018-01-11T00:13:05.244Z,12.60
2018-01-11T00:15:32.826Z,14.10
2018-01-11T00:18:00.393Z,13.43
2018-01-11T00:20:27.945Z,13.20
2018-01-11T00:22:55.506Z,13.40
2018-01-11T00:25:23.160Z,12.00
2018-01-11T00:27:51.545Z,15.73
2018-01-11T00:30:19.922Z,13.02
2018-01-11T00:32:47.469Z,11.43
2018-01-11T00:35:15.030Z,13.62
2018-01-11T00:37:42.610Z,15.18
2018-01-11T00:40:10.209Z,10.90
2018-01-11T00:42:37.800Z,12.98
2018-01-11T00:45:05.354Z,14.45
2018-01-11T00:47:32.928Z,14.10
2018-01-11T00:50:00.592Z,11.40
2018-01-11T00:52:28.177Z,15.07
2018-01-11T00:54:56.641Z,15.32
2018-01-11T00:57:24.317Z,18.30
2018-01-11T00:59:51.909Z,14.02
2018-01-11T01:02:20.242Z,11.12
2018-01-11T01:04:48.085Z,13.38
2018-01-11T01:07:15.641Z,16.20
2018-01-11T01:09:43.241Z,12.25
2018-01-11T01:12:11.287Z,12.85
2018-01-11T01:14:38.847Z,17.40
2018-01-11T01:17:06.432Z,11.75
2018-01-11T01:19:33.997Z,16.83
2018-01-11T01:22:01.585Z,14.73
2018-01-11T01:24:30.039Z,15.15
2018-01-11T01:26:57.577Z,14.95
2018-01-11T01:29:25.141Z,15.77
2018-01-11T01:31:52.755Z,15.57
2018-01-11T01:34:21.127Z,18.42
2018-01-11T01:36:49.613Z,13.75
2018-01-11T01:39:17.172Z,14.43
2018-01-11T01:41:44.770Z,10.35
2018-01-11T01:44:12.329Z,16.02
2018-01-11T01:46:39.890Z,22.02
2018-01-11T01:49:07.440Z,14.70
2018-01-11T01:51:35.063Z,17.87
2018-01-11T01:54:03.438Z,10.50
2018-01-11T01:56:31.051Z,13.55
2018-01-11T01:58:58.647Z,13.73
2018-01-11T02:01:26.240Z,23.85
2018-01-11T02:03:54.600Z,22.45
2018-01-11T02:06:22.157Z,22.15
2018-01-11T02:08:50.797Z,18.73
2018-01-11T02:11:18.411Z,19.33
2018-01-11T02:13:46.768Z,18.30
2018-01-11T02:16:14.364Z,22.60
2018-01-11T02:18:41.963Z,18.80
2018-01-11T02:21:09.586Z,14.93
2018-01-11T02:23:37.216Z,13.90
2018-01-11T02:26:04.811Z,20.85
2018-01-11T02:28:32.441Z,14.95
2018-01-11T02:31:00.143Z,18.95
2018-01-11T02:33:27.773Z,22.15
2018-01-11T02:35:56.227Z,17.00
2018-01-11T02:38:23.775Z,17.48
2018-01-11T02:40:51.379Z,14.95
2018-01-11T02:43:19.891Z,16.98
2018-01-11T02:45:47.498Z,15.63
2018-01-11T02:48:15.108Z,21.15
2018-01-11T02:50:42.719Z,17.20
2018-01-11T02:53:10.483Z,20.27
2018-01-11T02:55:38.222Z,13.57
2018-01-11T02:58:05.805Z,14.35
2018-01-11T03:00:33.361Z,17.02
2018-01-11T03:03:01.027Z,15.70
2018-01-11T03:05:29.521Z,21.52
2018-01-11T03:07:57.080Z,15.30
2018-01-11T03:10:24.693Z,15.93
2018-01-11T03:12:52.310Z,14.98
2018-01-11T03:15:19.918Z,19.02
2018-01-11T03:17:47.482Z,17.77
2018-01-11T03:20:15.096Z,15.02
2018-01-11T03:22:42.674Z,13.45
2018-01-11T03:25:10.429Z,17.98
2018-01-11T03:27:38.781Z,18.87
2018-01-11T03:30:06.332Z,17.58
2018-01-11T03:32:33.956Z,16.60
2018-01-11T03:35:01.551Z,18.60
2018-01-11T03:37:29.072Z,21.02
2018-01-11T03:39:56.744Z,18.52
2018-01-11T03:42:24.315Z,15.57
2018-01-11T03:44:51.943Z,17.27
2018-01-11T03:47:19.537Z,20.20
2018-01-11T03:49:47.160Z,23.50
2018-01-11T03:52:14.834Z,15.30
2018-01-11T03:54:42.382Z,18.40
2018-01-11T03:57:10.007Z,16.33
2018-01-11T03:59:37.630Z,19.08
2018-01-11T04:02:05.216Z,16.20
2018-01-11T04:04:32.824Z,20.48
2018-01-11T04:07:01.161Z,14.20
2018-01-11T04:09:28.795Z,16.90
2018-01-11T04:11:56.472Z,16.75
2018-01-11T04:14:24.193Z,17.87
2018-01-11T04:16:51.957Z,23.20
2018-01-11T04:19:19.557Z,20.42
2018-01-11T04:21:47.285Z,19.05
2018-01-11T04:24:14.885Z,15.20
2018-01-11T04:26:43.545Z,18.20
2018-01-11T04:29:11.171Z,22.50
2018-01-11T04:31:39.577Z,24.80
2018-01-11T04:34:07.272Z,21.77
2018-01-11T04:36:34.899Z,19.83
2018-01-11T04:39:02.474Z,19.67
2018-01-11T04:41:30.148Z,19.08
2018-01-11T04:43:57.745Z,22.62
2018-01-11T04:46:25.421Z,20.15
2018-01-11T04:48:53.887Z,19.35
2018-01-11T04:51:21.461Z,17.77
2018-01-11T04:53:50.107Z,20.02
2018-01-11T04:56:17.675Z,22.37
2018-01-11T04:58:45.705Z,24.35
2018-01-11T05:01:13.282Z,17.62
2018-01-11T05:03:40.913Z,21.83
2018-01-11T05:06:08.460Z,24.52
2018-01-11T05:08:36.870Z,20.35
2018-01-11T05:11:04.529Z,21.52
2018-01-11T05:13:32.122Z,19.27
2018-01-11T05:15:59.716Z,18.77
2018-01-11T05:18:28.066Z,19.50
2018-01-11T05:20:55.664Z,23.52
2018-01-11T05:23:24.118Z,26.23
2018-01-11T05:25:51.717Z,19.87
2018-01-11T05:28:19.294Z,21.55
2018-01-11T05:30:46.950Z,21.37
2018-01-11T05:33:14.626Z,21.50
2018-01-11T05:35:42.315Z,21.08
2018-01-11T05:38:09.907Z,23.23
2018-01-11T05:40:38.299Z,19.45
2018-01-11T05:43:06.801Z,21.75
2018-01-11T05:45:34.407Z,20.75
2018-01-11T05:48:02.917Z,29.33
2018-01-11T05:50:30.490Z,18.45
2018-01-11T05:52:58.063Z,25.05
2018-01-11T05:55:25.651Z,20.67
2018-01-11T05:57:53.293Z,17.27
2018-01-11T06:00:20.861Z,20.65
2018-01-11T06:02:48.427Z,18.37
2018-01-11T06:05:16.003Z,18.12
2018-01-11T06:07:43.613Z,18.50
2018-01-11T06:10:11.194Z,15.00
2018-01-11T06:12:39.693Z,19.45
2018-01-11T06:15:07.397Z,23.35
2018-01-11T06:17:35.718Z,17.42
2018-01-11T06:20:03.301Z,29.08
2018-01-11T06:22:30.887Z,25.08
2018-01-11T06:24:59.089Z,22.35
2018-01-11T06:27:26.778Z,22.27
2018-01-11T06:29:54.558Z,19.67
2018-01-11T06:32:22.584Z,22.77
2018-01-11T06:34:50.455Z,25.55
2018-01-11T06:37:18.034Z,23.75
2018-01-11T06:39:45.647Z,27.05
2018-01-11T06:42:13.231Z,20.27
2018-01-11T06:44:40.827Z,18.85
2018-01-11T06:47:08.558Z,26.17
2018-01-11T06:49:36.133Z,21.95
2018-01-11T06:52:03.675Z,21.75
2018-01-11T06:54:31.334Z,24.80
2018-01-11T06:56:59.751Z,24.90
2018-01-11T06:59:27.409Z,24.30
2018-01-11T07:01:54.967Z,24.15
2018-01-11T07:04:22.619Z,24.52
2018-01-11T07:06:50.219Z,25.98
2018-01-11T07:09:17.773Z,25.75
2018-01-11T07:11:45.385Z,25.45
2018-01-11T07:14:12.935Z,28.23
2018-01-11T07:16:40.508Z,32.88
2018-01-11T07:19:08.078Z,23.80
2018-01-11T07:21:35.752Z,29.05
2018-01-11T07:24:03.367Z,24.83
2018-01-11T07:26:31.729Z,25.48
2018-01-11T07:28:59.282Z,25.77
2018-01-11T07:31:26.811Z,24.25
2018-01-11T07:33:54.395Z,23.23
2018-01-11T07:36:22.079Z,24.20
2018-01-11T07:38:49.852Z,29.87
2018-01-11T07:41:17.848Z,24.23
2018-01-11T07:43:46.450Z,30.75
2018-01-11T07:46:14.088Z,23.38
2018-01-11T07:48:41.776Z,26.05
2018-01-11T07:51:09.383Z,24.17
2018-01-11T07:53:36.979Z,25.65
2018-01-11T07:56:04.926Z,25.62
2018-01-11T07:58:33.348Z,24.73
2018-01-11T08:01:01.920Z,21.40
2018-01-11T08:03:29.488Z,25.90
2018-01-11T08:05:57.052Z,30.62
2018-01-11T08:08:24.614Z,26.25
2018-01-11T08:10:53.871Z,52.53
2018-01-11T08:13:22.349Z,32.70
2018-01-11T08:15:49.878Z,49.60
2018-01-11T08:18:17.447Z,31.65
2018-01-11T08:20:45.782Z,27.67
2018-01-11T08:23:13.415Z,27.20
2018-01-11T08:25:40.977Z,24.77
2018-01-11T08:28:09.306Z,24.05
2018-01-11T08:30:36.858Z,24.73
2018-01-11T08:33:04.433Z,27.00
2018-01-11T08:35:32.035Z,33.33
2018-01-11T08:38:00.347Z,29.35
2018-01-11T08:40:27.924Z,31.55
2018-01-11T08:42:55.465Z,33.25
2018-01-11T08:45:23.080Z,28.45
2018-01-11T08:47:51.458Z,28.52
2018-01-11T08:50:19.052Z,30.95
2018-01-11T08:52:46.671Z,26.33
2018-01-11T08:55:14.257Z,29.33
2018-01-11T08:57:42.651Z,22.60
2018-01-11T09:00:10.308Z,28.70
2018-01-11T09:02:38.655Z,30.37
2018-01-11T09:05:07.033Z,24.98
2018-01-11T09:07:34.609Z,20.48
2018-01-11T09:10:02.994Z,29.85
2018-01-11T09:12:31.361Z,25.55
2018-01-11T09:14:58.930Z,27.77
2018-01-11T09:17:27.328Z,25.67
2018-01-11T09:19:54.980Z,25.52
2018-01-11T09:22:23.304Z,29.12
2018-01-11T09:24:51.512Z,26.80
2018-01-11T09:27:19.081Z,26.55
2018-01-11T09:29:47.268Z,28.25
2018-01-11T09:32:15.581Z,34.58
2018-01-11T09:34:43.186Z,23.02
2018-01-11T09:37:10.768Z,26.40
2018-01-11T09:39:39.124Z,23.62
2018-01-11T09:42:07.525Z,36.38
2018-01-11T09:44:35.854Z,29.95
2018-01-11T09:47:04.071Z,26.15
2018-01-11T09:49:32.432Z,29.98
2018-01-11T09:52:00.652Z,28.75
2018-01-11T09:54:28.247Z,26.52
2018-01-11T09:56:56.195Z,32.50
2018-01-11T09:59:23.782Z,28.10
2018-01-11T10:01:51.350Z,25.25
2018-01-11T10:04:19.025Z,21.67
2018-01-11T10:06:46.653Z,22.98
2018-01-11T10:09:14.221Z,24.95
2018-01-11T10:11:42.011Z,26.48
2018-01-11T10:14:10.352Z,28.38
2018-01-11T10:16:37.946Z,37.63
2018-01-11T10:19:05.524Z,31.65
2018-01-11T10:21:33.218Z,32.70
2018-01-11T10:24:00.772Z,42.35
2018-01-11T10:26:28.937Z,54.78
2018-01-11T10:28:56.682Z,30.40
2018-01-11T10:31:24.245Z,29.95
2018-01-11T10:33:51.861Z,32.53
2018-01-11T10:36:19.488Z,40.80
2018-01-11T10:38:48.105Z,34.28
2018-01-11T10:43:50.973Z,32.30
2018-01-11T10:46:18.653Z,25.25
2018-01-11T10:48:46.186Z,22.30
2018-01-11T10:51:13.775Z,31.65
2018-01-11T10:53:41.507Z,24.95
2018-01-11T10:56:09.118Z,26.37
2018-01-11T10:58:36.692Z,35.10
2018-01-11T11:01:10.017Z,31.10
2018-01-11T11:03:37.666Z,30.88
2018-01-11T11:06:05.263Z,46.10
2018-01-11T11:08:35.180Z,41.58
2018-01-11T11:11:03.216Z,28.35
2018-01-11T11:13:30.822Z,27.60
2018-01-11T11:15:58.396Z,26.65
2018-01-11T11:18:25.976Z,33.50
2018-01-11T11:20:53.550Z,28.48
2018-01-11T11:23:21.928Z,30.02
2018-01-11T11:25:50.332Z,26.10
2018-01-11T11:28:17.922Z,26.42
2018-01-11T11:30:45.497Z,28.95
2018-01-11T11:33:13.055Z,26.27
2018-01-11T11:35:40.626Z,29.05
2018-01-11T11:38:08.160Z,25.05
2018-01-11T11:40:35.889Z,27.80
2018-01-11T11:43:03.536Z,29.23
2018-01-11T11:45:31.928Z,28.15
2018-01-11T11:47:59.723Z,26.67
2018-01-11T11:50:27.319Z,27.25
2018-01-11T11:52:55.063Z,27.73
2018-01-11T11:55:22.950Z,26.50
2018-01-11T11:57:50.520Z,25.27
2018-01-11T12:00:18.070Z,25.17
2018-01-11T12:02:45.789Z,27.75
2018-01-11T12:05:14.161Z,26.98
2018-01-11T12:07:41.732Z,25.85
2018-01-11T12:10:09.314Z,23.33
2018-01-11T12:12:36.875Z,27.67
2018-01-11T12:15:04.478Z,25.23
2018-01-11T12:17:33.021Z,25.95
2018-01-11T12:20:00.597Z,23.87
2018-01-11T12:22:28.151Z,20.23
2018-01-11T12:24:55.924Z,23.70
2018-01-11T12:27:23.513Z,24.70
2018-01-11T12:29:51.071Z,23.90
2018-01-11T12:32:18.820Z,20.52
2018-01-11T12:34:46.393Z,24.75
2018-01-11T12:37:14.100Z,26.55
2018-01-11T12:39:42.504Z,17.50
2018-01-11T12:42:10.097Z,20.60
2018-01-11T12:44:37.687Z,21.98
2018-01-11T12:47:05.467Z,19.23
2018-01-11T12:49:33.098Z,25.62
2018-01-11T12:52:01.818Z,22.23
2018-01-11T12:54:30.201Z,23.62
2018-01-11T12:56:57.761Z,25.83
2018-01-11T12:59:25.331Z,21.55
2018-01-11T13:01:52.998Z,29.50
2018-01-11T13:04:20.706Z,24.70
2018-01-11T13:06:48.577Z,28.70
2018-01-11T13:09:16.270Z,25.95
2018-01-11T13:11:43.924Z,23.27
2018-01-11T13:14:11.491Z,24.80
2018-01-11T13:16:39.882Z,33.10
2018-01-11T13:19:07.458Z,24.55
2018-01-11T13:21:35.165Z,32.05
2018-01-11T13:24:03.114Z,23.38
2018-01-11T13:26:30.686Z,24.45
2018-01-11T13:28:58.311Z,26.92
2018-01-11T13:31:25.893Z,29.85
2018-01-11T13:33:54.231Z,29.77
2018-01-11T13:36:21.833Z,27.87
2018-01-11T13:38:49.538Z,30.95
2018-01-11T13:41:18.175Z,26.83
2018-01-11T13:43:45.743Z,29.85
2018-01-11T13:46:13.490Z,24.45
2018-01-11T13:48:41.139Z,27.13
2018-01-11T13:51:08.773Z,29.37
2018-01-11T13:53:37.159Z,28.48
2018-01-11T13:56:04.846Z,22.55
2018-01-11T13:58:33.348Z,27.42
2018-01-11T14:01:00.972Z,22.25
2018-01-11T14:03:28.567Z,29.17
2018-01-11T14:05:56.994Z,28.67
2018-01-11T14:08:25.384Z,29.02
2018-01-11T14:10:53.130Z,28.00
2018-01-11T14:13:20.697Z,29.90
2018-01-11T14:15:48.383Z,30.62
2018-01-11T14:18:16.002Z,29.05
2018-01-11T14:20:43.634Z,36.30
2018-01-11T14:23:11.194Z,33.38
2018-01-11T14:25:39.794Z,30.65
2018-01-11T14:28:08.132Z,26.50
2018-01-11T14:30:35.679Z,31.05
2018-01-11T14:33:03.342Z,35.33
2018-01-11T14:35:31.649Z,27.98
2018-01-11T14:37:59.352Z,32.53
2018-01-11T14:40:26.981Z,29.92
2018-01-11T14:42:54.554Z,27.55
2018-01-11T14:45:23.012Z,23.65
2018-01-11T14:47:50.617Z,32.72
2018-01-11T14:50:18.228Z,25.23
2018-01-11T14:52:45.951Z,32.80
2018-01-11T14:55:13.536Z,32.92
2018-01-11T14:57:41.112Z,29.02
2018-01-11T15:00:08.708Z,28.45
2018-01-11T15:02:36.664Z,34.55
2018-01-11T15:05:04.365Z,30.23
2018-01-11T15:07:31.940Z,34.20
2018-01-11T15:09:59.681Z,33.10
2018-01-11T15:12:27.271Z,36.63
2018-01-11T15:14:55.706Z,37.97
2018-01-11T15:17:23.279Z,38.70
2018-01-11T15:19:50.870Z,34.88
2018-01-11T15:22:19.277Z,33.17
2018-01-11T15:24:47.279Z,33.63
2018-01-11T15:27:15.931Z,42.00
2018-01-11T15:29:43.646Z,35.88
2018-01-11T15:32:12.026Z,32.25
2018-01-11T15:34:39.599Z,37.97
2018-01-11T15:37:07.264Z,27.35
2018-01-11T15:39:34.940Z,34.75
2018-01-11T15:42:03.260Z,30.42
2018-01-11T15:44:30.820Z,37.92
2018-01-11T15:46:58.401Z,36.97
2018-01-11T15:49:25.934Z,32.13
2018-01-11T15:51:53.521Z,47.92
2018-01-11T15:54:21.168Z,38.47
2018-01-11T15:56:48.830Z,39.67
2018-01-11T15:59:16.516Z,33.10
2018-01-11T16:01:45.802Z,34.25
2018-01-11T16:04:13.363Z,36.25
2018-01-11T16:06:41.061Z,33.15
2018-01-11T16:09:09.501Z,41.35
2018-01-11T16:11:37.104Z,31.62
2018-01-11T16:14:05.432Z,37.63
2018-01-11T16:16:33.039Z,37.00
2018-01-11T16:19:00.799Z,41.33
2018-01-11T16:21:29.149Z,32.92
2018-01-11T16:23:57.802Z,33.05
2018-01-11T16:26:27.184Z,35.10
2018-01-11T16:28:54.826Z,30.20
2018-01-11T16:31:23.150Z,44.17
2018-01-11T16:33:57.218Z,34.10
2018-01-11T16:36:26.107Z,33.78
2018-01-11T16:38:53.782Z,33.35
2018-01-11T16:41:21.600Z,34.78
2018-01-11T16:43:50.102Z,35.38
2018-01-11T16:46:17.788Z,35.67
2018-01-11T16:48:46.787Z,37.08
2018-01-11T16:51:14.619Z,34.80
2018-01-11T16:53:42.237Z,39.25
2018-01-11T16:56:09.897Z,42.30
2018-01-11T16:58:37.541Z,39.35
2018-01-11T17:01:05.150Z,32.15
2018-01-11T17:03:32.786Z,31.95
2018-01-11T17:06:00.655Z,35.50
2018-01-11T17:08:28.290Z,36.65
2018-01-11T17:10:55.845Z,33.97
2018-01-11T17:13:23.486Z,42.85
2018-01-11T17:15:52.791Z,32.28
2018-01-11T17:18:21.100Z,34.55
2018-01-11T17:20:48.745Z,29.60
2018-01-11T17:23:17.941Z,34.30
2018-01-11T17:25:45.519Z,46.83
2018-01-11T17:28:13.197Z,39.00
2018-01-11T17:30:40.774Z,41.80
2018-01-11T17:33:08.702Z,35.17
2018-01-11T17:35:36.482Z,40.90
2018-01-11T17:38:04.926Z,35.25
2018-01-11T17:40:33.335Z,41.40
2018-01-11T17:43:00.957Z,33.95
2018-01-11T17:45:28.857Z,34.88
2018-01-11T17:47:56.456Z,37.42
2018-01-11T17:50:24.529Z,36.13
2018-01-11T17:52:53.021Z,55.83
2018-01-11T17:55:20.627Z,35.42
2018-01-11T17:57:48.213Z,37.22
2018-01-11T18:00:15.950Z,35.97
2018-01-11T18:02:43.504Z,36.33
2018-01-11T18:05:11.956Z,45.45
2018-01-11T18:07:39.603Z,38.63
2018-01-11T18:10:07.943Z,38.90
2018-01-11T18:12:36.364Z,36.10
2018-01-11T18:15:04.018Z,36.30
2018-01-11T18:17:33.144Z,37.95
2018-01-11T18:20:00.881Z,33.70
2018-01-11T18:22:28.560Z,41.45
2018-01-11T18:24:57.678Z,41.67
2018-01-11T18:27:26.143Z,44.85
2018-01-11T18:29:53.754Z,37.03
2018-01-11T18:32:21.473Z,39.55
2018-01-11T18:34:49.152Z,48.60
2018-01-11T18:37:16.712Z,33.08
2018-01-11T18:39:45.077Z,43.22
2018-01-11T18:42:13.485Z,38.00
2018-01-11T18:44:41.079Z,38.60
2018-01-11T18:47:08.724Z,37.08
2018-01-11T18:49:36.338Z,39.72
2018-01-11T18:52:04.025Z,50.35
2018-01-11T18:54:31.675Z,41.65
2018-01-11T18:57:00.122Z,42.35
2018-01-11T18:59:43.183Z,39.47
2018-01-11T19:02:11.012Z,40.67
2018-01-11T19:04:38.699Z,44.35
2018-01-11T19:07:06.332Z,39.10
2018-01-11T19:09:33.956Z,42.62
2018-01-11T19:12:01.998Z,44.03
2018-01-11T19:14:29.605Z,41.85
2018-01-11T19:16:58.077Z,43.47
2018-01-11T19:19:25.669Z,47.28
2018-01-11T19:21:53.418Z,43.97
2018-01-11T19:24:21.060Z,49.47
2018-01-11T19:26:48.708Z,43.83
2018-01-11T19:29:16.419Z,44.83
2018-01-11T19:31:43.994Z,46.95
2018-01-11T19:34:11.555Z,48.75
2018-01-11T19:36:39.253Z,47.47
2018-01-11T19:39:06.847Z,49.88
2018-01-11T19:41:34.510Z,52.47
2018-01-11T19:44:03.281Z,50.38
2018-01-11T19:46:31.047Z,41.72
2018-01-11T19:48:58.804Z,50.03
2018-01-11T19:51:26.686Z,52.42
2018-01-11T19:53:54.246Z,44.20
2018-01-11T19:56:21.909Z,44.15
2018-01-11T19:58:53.772Z,56.17
2018-01-11T20:01:21.549Z,48.45
2018-01-11T20:03:49.191Z,50.65
2018-01-11T20:06:16.806Z,44.80
2018-01-11T20:08:44.619Z,46.03
2018-01-11T20:11:12.399Z,42.95
2018-01-11T20:13:40.137Z,41.65
2018-01-11T20:16:07.932Z,39.42
2018-01-11T20:18:35.666Z,45.85
2018-01-11T20:21:03.276Z,44.38
2018-01-11T20:23:31.700Z,43.00
2018-01-11T20:25:59.347Z,55.15
2018-01-11T20:28:26.944Z,48.55
2018-01-11T20:30:54.527Z,57.15
2018-01-11T20:33:22.288Z,44.33
2018-01-11T20:35:49.856Z,53.53
2018-01-11T20:38:17.491Z,47.20
2018-01-11T20:40:45.181Z,42.28
2018-01-11T20:43:12.789Z,46.33
2018-01-11T20:45:41.209Z,44.65
2018-01-11T20:48:08.818Z,61.03
2018-01-11T20:50:36.413Z,47.75
2018-01-11T20:53:04.022Z,47.13
2018-01-11T20:55:32.425Z,47.88
2018-01-11T20:58:00.122Z,46.70
2018-01-11T21:00:28.494Z,51.20
2018-01-11T21:02:56.201Z,46.22
2018-01-11T21:05:24.667Z,45.28
2018-01-11T21:07:52.416Z,52.60
2018-01-11T21:10:19.970Z,44.40
2018-01-11T21:12:47.671Z,51.72
2018-01-11T21:15:16.050Z,53.05
2018-01-11T21:17:44.450Z,44.40
2018-01-11T21:20:12.007Z,52.72
2018-01-11T21:22:39.642Z,52.58
2018-01-11T21:25:07.980Z,49.88
2018-01-11T21:27:42.876Z,47.45
2018-01-11T21:30:10.501Z,49.08
2018-01-11T21:32:39.074Z,53.33
2018-01-11T21:35:08.168Z,54.85
2018-01-11T21:37:35.788Z,55.35
2018-01-11T21:40:03.408Z,56.92
2018-01-11T21:42:31.068Z,48.63
2018-01-11T21:45:00.456Z,54.88
2018-01-11T21:47:28.848Z,48.42
2018-01-11T21:49:56.494Z,49.22
2018-01-11T21:52:24.175Z,53.47
2018-01-11T21:54:51.800Z,50.63
2018-01-11T21:57:19.333Z,47.53
2018-01-11T21:59:46.956Z,52.00
2018-01-11T22:02:14.564Z,44.25
2018-01-11T22:04:42.114Z,59.97
2018-01-11T22:07:09.692Z,47.88
2018-01-11T22:09:37.370Z,57.53
2018-01-11T22:12:04.938Z,44.70
2018-01-11T22:14:32.502Z,52.00
2018-01-11T22:17:00.079Z,45.42
2018-01-11T22:19:27.669Z,57.05
2018-01-11T22:21:55.314Z,53.13
2018-01-11T22:24:23.642Z,54.15
2018-01-11T22:26:52.064Z,51.00
2018-01-11T22:29:19.610Z,52.25
2018-01-11T22:31:47.218Z,51.95
2018-01-11T22:34:14.812Z,52.97
2018-01-11T22:36:42.384Z,61.50
2018-01-11T22:39:09.968Z,50.25
2018-01-11T22:41:38.303Z,51.42
2018-01-11T22:44:05.969Z,50.83
2018-01-11T22:46:33.490Z,53.92
2018-01-11T22:49:01.057Z,55.47
2018-01-11T22:51:28.651Z,56.97
2018-01-11T22:53:56.215Z,52.15
2018-01-11T22:56:23.857Z,53.08
2018-01-11T22:58:51.442Z,60.53
2018-01-11T23:01:19.028Z,55.40
2018-01-11T23:03:46.612Z,54.35
2018-01-11T23:06:14.178Z,52.05
2018-01-11T23:08:41.878Z,55.17
2018-01-11T23:11:09.481Z,46.10
2018-01-11T23:13:38.642Z,56.28
2018-01-11T23:16:06.280Z,49.42
2018-01-11T23:18:33.818Z,46.72
2018-01-11T23:21:01.394Z,55.65
2018-01-11T23:23:29.038Z,47.05
2018-01-11T23:25:57.252Z,48.72
2018-01-11T23:28:24.915Z,50.72
2018-01-11T23:30:53.239Z,46.55
2018-01-11T23:33:20.836Z,51.45
2018-01-11T23:35:48.472Z,47.33
2018-01-11T23:38:16.031Z,49.55
2018-01-11T23:40:44.455Z,46.03
2018-01-11T23:43:12.122Z,46.90
2018-01-11T23:45:40.472Z,45.45
2018-01-11T23:48:08.033Z,45.97
2018-01-11T23:50:36.180Z,50.92
2018-01-11T23:53:03.756Z,49.60
2018-01-11T23:55:31.416Z,49.35
2018-01-11T23:57:58.998Z,43.72
